Terminal Aerodrome Forecast
Issued by NWS Twin Cities, MN

Home | Current Version | Previous Version | Graphics & Text | Print | Product List | Glossary On
Versions: 1 2 3 4 5 6 7 8 9 10 11 12 13 14 15 16 17
000
FTUS43 KMPX 291720
TAFEAU
TAF
KEAU 291720Z 2918/3018 17009KT P6SM FEW015 SCT040
     FM292100 20009KT P6SM SCT040 BKN120
     FM300300 VRB03KT P6SM VCSH SCT040 OVC090
      TEMPO 3003/3007 4SM -TSRA BR BKN035CB
     FM301000 VRB03KT 1/2SM FG OVC003
     FM301500 34005KT P6SM BKN007 OVC020=

USA.gov is the U.S. government's official web portal to all federal, state and local government web resources and services.